createdAt,value
2022-12-18T00:01:33.996Z,9.43
2022-12-18T00:04:03.319Z,10.97
2022-12-18T00:06:31.853Z,10.63
2022-12-18T00:09:01.159Z,10.50
2022-12-18T00:11:31.801Z,12.87
2022-12-18T00:14:01.922Z,13.27
2022-12-18T00:16:33.750Z,13.67
2022-12-18T00:19:02.763Z,15.40
2022-12-18T00:21:31.733Z,15.23
2022-12-18T00:24:00.188Z,14.13
2022-12-18T00:26:31.582Z,12.07
2022-12-18T00:29:01.397Z,13.47
2022-12-18T00:31:30.579Z,14.20
2022-12-18T00:33:59.460Z,13.90
2022-12-18T00:36:29.642Z,14.70
2022-12-18T00:38:58.960Z,11.80
2022-12-18T00:41:45.286Z,11.27
2022-12-18T00:44:17.057Z,10.07
2022-12-18T00:46:46.489Z,10.03
2022-12-18T00:49:14.781Z,12.03
2022-12-18T00:51:42.873Z,9.83
2022-12-18T00:54:10.919Z,10.73
2022-12-18T00:56:45.785Z,9.43
2022-12-18T00:59:18.717Z,10.50
2022-12-18T01:01:48.229Z,11.03
2022-12-18T01:04:17.154Z,10.80
2022-12-18T01:06:45.074Z,11.47
2022-12-18T01:09:13.065Z,12.60
2022-12-18T01:11:41.381Z,11.43
2022-12-18T01:14:09.546Z,12.37
2022-12-18T01:16:39.291Z,11.43
2022-12-18T01:19:07.726Z,10.50
2022-12-18T01:21:35.910Z,11.77
2022-12-18T01:24:03.932Z,10.80
2022-12-18T01:26:31.924Z,9.98
2022-12-18T01:29:00.331Z,11.13
2022-12-18T01:31:30.423Z,11.17
2022-12-18T01:34:02.220Z,10.80
2022-12-18T01:36:32.065Z,11.17
2022-12-18T01:39:01.887Z,12.10
2022-12-18T01:41:52.603Z,10.20
2022-12-18T01:45:03.422Z,9.77
2022-12-18T01:47:36.636Z,11.15
2022-12-18T01:50:09.839Z,11.48
2022-12-18T01:52:39.625Z,11.80
2022-12-18T01:55:09.055Z,10.68
2022-12-18T01:57:37.730Z,10.82
2022-12-18T02:00:09.415Z,9.55
2022-12-18T02:02:37.719Z,10.32
2022-12-18T02:05:08.490Z,10.55
2022-12-18T02:07:44.590Z,10.82
2022-12-18T02:10:18.754Z,10.05
2022-12-18T02:12:51.307Z,11.48
2022-12-18T02:15:27.454Z,10.45
2022-12-18T02:17:58.606Z,13.15
2022-12-18T02:20:34.912Z,11.70
2022-12-18T02:23:24.343Z,10.23
2022-12-18T02:26:21.230Z,10.70
2022-12-18T02:28:55.832Z,10.55
2022-12-18T02:31:27.237Z,9.32
2022-12-18T02:33:58.466Z,11.20
2022-12-18T02:36:28.719Z,9.55
2022-12-18T02:38:58.360Z,10.55
2022-12-18T02:41:28.330Z,9.77
2022-12-18T02:44:00.518Z,11.18
2022-12-18T02:46:32.929Z,12.43
2022-12-18T02:49:08.825Z,11.38
2022-12-18T02:51:46.928Z,10.43
2022-12-18T02:54:23.482Z,10.05
2022-12-18T02:56:56.670Z,8.95
2022-12-18T02:59:33.122Z,8.82
2022-12-18T03:02:07.315Z,9.25
2022-12-18T03:04:44.702Z,9.75
2022-12-18T03:07:18.817Z,10.02
2022-12-18T03:09:51.256Z,11.55
2022-12-18T03:12:26.274Z,10.27
2022-12-18T03:14:59.734Z,10.00
2022-12-18T03:17:30.286Z,9.70
2022-12-18T03:20:03.753Z,9.13
2022-12-18T03:22:35.244Z,9.75
2022-12-18T03:25:06.425Z,10.10
2022-12-18T03:27:38.129Z,10.02
2022-12-18T03:30:09.205Z,9.40
2022-12-18T03:32:43.218Z,10.23
2022-12-18T03:35:15.128Z,9.35
2022-12-18T03:37:43.069Z,10.55
2022-12-18T03:40:11.755Z,10.13
2022-12-18T03:42:48.770Z,9.45
2022-12-18T03:45:23.179Z,11.90
2022-12-18T03:48:01.201Z,8.73
2022-12-18T03:50:37.864Z,8.88
2022-12-18T03:53:16.347Z,12.15
2022-12-18T03:55:45.133Z,12.50
2022-12-18T03:58:18.402Z,14.05
2022-12-18T04:00:47.066Z,13.77
2022-12-18T04:03:16.741Z,15.25
2022-12-18T04:05:45.998Z,18.63
2022-12-18T04:08:15.192Z,20.08
2022-12-18T04:10:43.130Z,18.48
2022-12-18T04:13:11.565Z,17.73
2022-12-18T04:15:41.877Z,11.50
2022-12-18T04:18:10.209Z,11.38
2022-12-18T04:20:38.171Z,13.60
2022-12-18T04:23:06.144Z,14.88
2022-12-18T04:25:34.069Z,15.90
2022-12-18T04:28:01.966Z,13.77
2022-12-18T04:30:29.956Z,12.43
2022-12-18T04:32:59.238Z,12.05
2022-12-18T04:35:27.237Z,13.63
2022-12-18T04:37:55.260Z,12.82
2022-12-18T04:40:23.297Z,12.68
2022-12-18T04:42:51.218Z,11.90
2022-12-18T04:45:19.278Z,11.40
2022-12-18T04:47:47.285Z,12.73
2022-12-18T04:50:16.775Z,12.07
2022-12-18T04:52:44.725Z,13.90
2022-12-18T04:55:12.642Z,12.65
2022-12-18T04:57:40.558Z,11.85
2022-12-18T05:00:10.373Z,12.50
2022-12-18T05:02:38.378Z,12.18
2022-12-18T05:05:07.433Z,13.02
2022-12-18T05:07:36.673Z,12.70
2022-12-18T05:10:05.138Z,13.43
2022-12-18T05:12:34.406Z,15.98
2022-12-18T05:15:05.990Z,12.20
2022-12-18T05:17:33.873Z,11.98
2022-12-18T05:20:01.746Z,13.25
2022-12-18T05:22:29.846Z,11.77
2022-12-18T05:24:59.122Z,12.02
2022-12-18T05:27:27.209Z,11.88
2022-12-18T05:29:55.133Z,17.20
2022-12-18T05:32:23.095Z,13.32
2022-12-18T05:34:51.058Z,13.18
2022-12-18T05:37:18.985Z,14.15
2022-12-18T05:39:47.005Z,13.48
2022-12-18T05:42:16.317Z,12.73
2022-12-18T05:44:45.485Z,12.23
2022-12-18T05:47:13.494Z,12.60
2022-12-18T05:49:41.412Z,13.25
2022-12-18T05:52:09.850Z,13.05
2022-12-18T05:54:37.910Z,13.35
2022-12-18T05:57:05.804Z,12.38
2022-12-18T05:59:35.272Z,12.90
2022-12-18T06:02:03.380Z,12.82
2022-12-18T06:04:31.380Z,14.07
2022-12-18T06:06:59.706Z,12.70
2022-12-18T06:09:27.808Z,11.85
2022-12-18T06:11:55.761Z,11.60
2022-12-18T06:14:23.700Z,13.82
2022-12-18T06:16:53.962Z,14.00
2022-12-18T06:19:21.906Z,13.45
2022-12-18T06:21:50.171Z,15.77
2022-12-18T06:24:18.412Z,17.33
2022-12-18T06:26:46.365Z,18.42
2022-12-18T06:29:14.266Z,18.05
2022-12-18T06:31:42.308Z,15.77
2022-12-18T06:34:11.671Z,13.25
2022-12-18T06:36:39.817Z,13.70
2022-12-18T06:39:07.701Z,13.50
2022-12-18T06:41:35.762Z,14.75
2022-12-18T06:44:04.057Z,14.68
2022-12-18T06:46:33.102Z,14.05
2022-12-18T06:49:01.125Z,13.40
2022-12-18T06:51:30.516Z,16.15
2022-12-18T06:53:58.410Z,14.18
2022-12-18T06:56:26.413Z,15.50
2022-12-18T06:58:54.374Z,14.88
2022-12-18T07:01:22.913Z,14.32
2022-12-18T07:03:54.136Z,14.13
2022-12-18T07:06:24.825Z,13.13
2022-12-18T07:08:55.406Z,14.80
2022-12-18T07:11:23.629Z,15.65
2022-12-18T07:13:51.693Z,13.68
2022-12-18T07:16:25.122Z,14.05
2022-12-18T07:18:54.077Z,13.73
2022-12-18T07:21:22.101Z,13.13
2022-12-18T07:23:50.065Z,13.35
2022-12-18T07:26:20.948Z,14.05
2022-12-18T07:28:49.519Z,12.50
2022-12-18T07:31:20.071Z,11.75
2022-12-18T07:33:50.069Z,12.82
2022-12-18T07:36:18.936Z,9.90
2022-12-18T07:38:49.419Z,11.00
2022-12-18T07:41:19.570Z,14.32
2022-12-18T07:43:47.886Z,12.52
2022-12-18T07:46:17.096Z,11.73
2022-12-18T07:48:49.247Z,16.13
2022-12-18T07:51:18.642Z,13.73
2022-12-18T07:53:46.906Z,12.75
2022-12-18T07:56:30.541Z,14.30
2022-12-18T07:58:59.781Z,15.38
2022-12-18T08:01:28.687Z,16.30
2022-12-18T08:03:56.805Z,17.85
2022-12-18T08:06:25.013Z,18.48
2022-12-18T08:08:54.317Z,16.92
2022-12-18T08:11:24.642Z,19.15
2022-12-18T08:13:52.668Z,17.80
2022-12-18T08:16:21.364Z,19.00
2022-12-18T08:18:50.464Z,17.95
2022-12-18T08:21:21.885Z,19.58
2022-12-18T08:23:51.625Z,17.83
2022-12-18T08:26:20.851Z,16.25
2022-12-18T08:28:51.247Z,19.05
2022-12-18T08:31:19.955Z,18.52
2022-12-18T08:33:51.249Z,18.23
2022-12-18T08:36:20.021Z,16.45
2022-12-18T08:38:48.291Z,16.25
2022-12-18T08:41:17.887Z,18.10
2022-12-18T08:44:03.405Z,32.08
2022-12-18T08:46:37.608Z,19.42
2022-12-18T08:49:06.030Z,16.42
2022-12-18T08:51:34.265Z,22.02
2022-12-18T08:54:02.397Z,18.27
2022-12-18T08:56:31.914Z,20.20
2022-12-18T08:58:59.975Z,20.88
2022-12-18T09:01:28.076Z,20.65
2022-12-18T09:03:57.770Z,22.15
2022-12-18T09:06:27.433Z,22.80
2022-12-18T09:08:55.378Z,18.38
2022-12-18T09:11:25.030Z,17.80
2022-12-18T09:13:53.399Z,19.70
2022-12-18T09:16:22.530Z,19.58
2022-12-18T09:18:54.557Z,20.30
2022-12-18T09:21:23.909Z,19.95
2022-12-18T09:23:52.710Z,20.00
2022-12-18T09:26:20.846Z,20.50
2022-12-18T09:28:48.999Z,18.67
2022-12-18T09:31:17.436Z,19.80
2022-12-18T09:33:46.033Z,18.77
2022-12-18T09:36:16.258Z,22.00
2022-12-18T09:38:45.693Z,20.80
2022-12-18T09:41:32.657Z,21.20
2022-12-18T09:44:04.865Z,21.43
2022-12-18T09:46:36.158Z,24.33
2022-12-18T09:49:08.452Z,20.87
2022-12-18T09:51:42.028Z,19.47
2022-12-18T09:54:18.334Z,21.20
2022-12-18T09:56:46.803Z,18.50
2022-12-18T09:59:23.351Z,21.90
2022-12-18T10:01:52.375Z,22.73
2022-12-18T10:04:20.663Z,22.10
2022-12-18T10:06:55.021Z,20.67
2022-12-18T10:09:30.442Z,19.20
2022-12-18T10:12:09.520Z,21.73
2022-12-18T10:14:44.136Z,24.80
2022-12-18T10:17:22.813Z,23.27
2022-12-18T10:19:56.800Z,20.53
2022-12-18T10:22:36.910Z,20.60
2022-12-18T10:25:17.576Z,24.10
2022-12-18T10:27:45.769Z,21.80
2022-12-18T10:30:16.537Z,28.40
2022-12-18T10:32:44.920Z,28.27
2022-12-18T10:35:19.915Z,21.70
2022-12-18T10:38:09.128Z,28.10
2022-12-18T10:40:51.954Z,23.37
2022-12-18T10:43:24.288Z,24.13
2022-12-18T10:46:02.565Z,21.27
2022-12-18T10:48:31.794Z,23.97
2022-12-18T10:51:15.345Z,34.93
2022-12-18T10:53:44.691Z,26.17
2022-12-18T10:56:14.350Z,23.00
2022-12-18T10:58:42.685Z,23.43
2022-12-18T11:01:13.270Z,22.50
2022-12-18T11:03:43.191Z,22.93
2022-12-18T11:06:12.885Z,19.77
2022-12-18T11:08:41.862Z,20.60
2022-12-18T11:11:21.273Z,22.67
2022-12-18T11:14:00.750Z,21.70
2022-12-18T11:16:29.672Z,23.73
2022-12-18T11:19:12.761Z,22.90
2022-12-18T11:21:42.490Z,26.50
2022-12-18T11:24:21.330Z,23.80
2022-12-18T11:26:56.337Z,24.80
2022-12-18T11:29:36.171Z,24.83
2022-12-18T11:32:36.754Z,22.40
2022-12-18T11:35:19.252Z,26.57
2022-12-18T11:37:52.538Z,25.73
2022-12-18T11:40:28.578Z,20.60
2022-12-18T11:43:04.724Z,18.83
2022-12-18T11:45:37.921Z,20.50
2022-12-18T11:48:14.805Z,21.60
2022-12-18T11:50:52.574Z,23.30
2022-12-18T11:53:21.651Z,22.33
2022-12-18T11:56:06.971Z,19.47
2022-12-18T11:58:47.230Z,19.90
2022-12-18T12:01:30.852Z,22.07
2022-12-18T12:04:13.218Z,21.47
2022-12-18T12:06:52.007Z,21.50
2022-12-18T12:09:30.295Z,20.77
2022-12-18T12:12:11.501Z,17.20
2022-12-18T12:14:50.121Z,19.13
2022-12-18T12:17:27.463Z,21.47
2022-12-18T12:20:04.392Z,19.03
2022-12-18T12:22:41.578Z,21.60
2022-12-18T12:25:27.916Z,20.30
2022-12-18T12:28:08.987Z,21.83
2022-12-18T12:30:51.652Z,20.83
2022-12-18T12:33:32.473Z,22.60
2022-12-18T12:36:08.329Z,19.10
2022-12-18T12:38:48.286Z,21.47
2022-12-18T12:41:39.497Z,26.37
2022-12-18T12:44:10.756Z,19.90
2022-12-18T12:46:43.863Z,20.07
2022-12-18T12:49:16.482Z,17.80
2022-12-18T12:51:47.890Z,22.23
2022-12-18T12:54:18.932Z,20.73
2022-12-18T12:56:53.793Z,21.27
2022-12-18T12:59:28.317Z,19.43
2022-12-18T13:02:04.669Z,20.40
2022-12-18T13:04:39.075Z,21.57
2022-12-18T13:07:14.029Z,21.07
2022-12-18T13:10:17.228Z,21.17
2022-12-18T13:12:59.635Z,20.53
2022-12-18T13:15:40.995Z,19.47
2022-12-18T13:18:20.650Z,20.63
2022-12-18T13:20:55.215Z,20.43
2022-12-18T13:23:37.289Z,18.23
2022-12-18T13:26:32.260Z,20.20
2022-12-18T13:29:02.798Z,20.27
2022-12-18T13:32:12.923Z,18.90
2022-12-18T13:34:45.188Z,18.00
2022-12-18T13:37:49.926Z,19.60
2022-12-18T13:40:59.918Z,22.97
2022-12-18T13:43:37.979Z,19.90
2022-12-18T13:46:22.265Z,17.90
2022-12-18T13:48:59.843Z,16.63
2022-12-18T13:51:30.942Z,20.43
2022-12-18T13:54:02.392Z,21.20
2022-12-18T13:56:33.264Z,21.23
2022-12-18T13:59:24.280Z,24.07
2022-12-18T14:01:56.718Z,27.07
2022-12-18T14:04:28.031Z,22.40
2022-12-18T14:07:03.677Z,15.13
2022-12-18T14:09:36.612Z,20.10
2022-12-18T14:12:24.870Z,21.00
2022-12-18T14:14:55.298Z,16.63
2022-12-18T14:17:25.174Z,20.07
2022-12-18T14:19:53.779Z,20.33
2022-12-18T14:22:30.330Z,25.93
2022-12-18T14:25:16.476Z,23.70
2022-12-18T14:27:45.728Z,22.77
2022-12-18T14:30:28.038Z,22.43
2022-12-18T14:33:03.530Z,21.10
2022-12-18T14:35:31.452Z,17.83
2022-12-18T14:38:21.375Z,29.23
2022-12-18T14:40:49.934Z,37.17
2022-12-18T14:43:18.034Z,31.23
2022-12-18T14:45:47.463Z,31.20
2022-12-18T14:48:19.699Z,22.77
2022-12-18T14:51:00.739Z,18.20
2022-12-18T14:53:36.969Z,19.60
2022-12-18T14:56:06.112Z,18.50
2022-12-18T14:58:34.304Z,18.00
2022-12-18T15:01:02.351Z,19.17
2022-12-18T15:03:30.495Z,21.20
2022-12-18T15:06:16.887Z,20.17
2022-12-18T15:08:46.257Z,21.10
2022-12-18T15:11:34.789Z,21.67
2022-12-18T15:14:23.339Z,18.63
2022-12-18T15:16:54.479Z,23.33
2022-12-18T15:19:24.409Z,20.70
2022-12-18T15:21:52.354Z,21.10
2022-12-18T15:24:26.455Z,20.43
2022-12-18T15:26:54.846Z,21.27
2022-12-18T15:29:24.353Z,23.90
2022-12-18T15:32:03.897Z,25.13
2022-12-18T15:34:32.075Z,22.77
2022-12-18T15:36:59.993Z,18.73
2022-12-18T15:39:29.258Z,18.10
2022-12-18T15:42:14.762Z,18.47
2022-12-18T15:44:42.676Z,19.23
2022-12-18T15:47:14.201Z,18.60
2022-12-18T15:49:42.158Z,20.53
2022-12-18T15:52:14.327Z,18.83
2022-12-18T15:55:01.128Z,18.43
2022-12-18T15:57:29.120Z,18.40
2022-12-18T15:59:59.207Z,16.70
2022-12-18T16:02:28.979Z,16.53
2022-12-18T16:04:57.411Z,15.40
2022-12-18T16:07:27.351Z,17.77
2022-12-18T16:10:00.364Z,17.63
2022-12-18T16:12:30.815Z,17.87
2022-12-18T16:14:58.983Z,19.87
2022-12-18T16:17:26.878Z,20.10
2022-12-18T16:19:55.434Z,19.60
2022-12-18T16:22:25.902Z,19.40
2022-12-18T16:24:55.257Z,17.97
2022-12-18T16:27:25.444Z,17.70
2022-12-18T16:29:53.656Z,25.57
2022-12-18T16:32:24.764Z,18.93
2022-12-18T16:34:53.159Z,18.10
2022-12-18T16:37:21.120Z,17.10
2022-12-18T16:39:49.040Z,19.73
2022-12-18T16:42:20.543Z,19.17
2022-12-18T16:44:51.229Z,21.43
2022-12-18T16:47:20.323Z,21.10
2022-12-18T16:49:51.528Z,21.17
2022-12-18T16:52:19.968Z,22.73
2022-12-18T16:54:48.111Z,21.90
2022-12-18T16:57:18.186Z,29.10
2022-12-18T16:59:46.257Z,21.47
2022-12-18T17:02:20.263Z,22.53
2022-12-18T17:04:51.822Z,22.70
2022-12-18T17:07:19.773Z,28.70
2022-12-18T17:09:47.706Z,27.27
2022-12-18T17:12:15.617Z,23.83
2022-12-18T17:14:43.533Z,26.37
2022-12-18T17:17:26.929Z,24.53
2022-12-18T17:19:56.308Z,26.20
2022-12-18T17:22:24.232Z,25.63
2022-12-18T17:24:52.246Z,33.33
2022-12-18T17:27:20.220Z,29.80
2022-12-18T17:29:48.980Z,28.53
2022-12-18T17:32:17.836Z,30.37
2022-12-18T17:34:46.013Z,31.70
2022-12-18T17:37:15.649Z,27.73
2022-12-18T17:39:43.528Z,32.97
2022-12-18T17:42:14.057Z,27.20
2022-12-18T17:44:43.794Z,32.60
2022-12-18T17:47:12.885Z,27.60
2022-12-18T17:49:40.777Z,27.03
2022-12-18T17:52:09.038Z,26.27
2022-12-18T17:54:41.307Z,23.53
2022-12-18T17:57:09.428Z,28.90
2022-12-18T17:59:37.520Z,29.43
2022-12-18T18:02:05.840Z,26.47
2022-12-18T18:04:34.497Z,24.60
2022-12-18T18:07:02.993Z,28.90
2022-12-18T18:09:31.158Z,26.80
2022-12-18T18:12:17.869Z,32.47
2022-12-18T18:14:46.017Z,28.10
2022-12-18T18:17:14.535Z,27.63
2022-12-18T18:19:43.218Z,27.00
2022-12-18T18:22:13.933Z,30.17
2022-12-18T18:24:43.604Z,29.50
2022-12-18T18:27:12.889Z,26.70
2022-12-18T18:29:41.188Z,26.10
2022-12-18T18:32:09.223Z,28.97
2022-12-18T18:34:45.216Z,26.10
2022-12-18T18:37:13.605Z,29.23
2022-12-18T18:39:41.911Z,29.23
2022-12-18T18:42:10.147Z,28.00
2022-12-18T18:44:41.371Z,28.07
2022-12-18T18:47:12.826Z,26.90
2022-12-18T18:49:40.861Z,25.60
2022-12-18T18:52:08.806Z,29.30
2022-12-18T18:54:37.212Z,28.37
2022-12-18T18:57:26.275Z,28.07
2022-12-18T18:59:56.497Z,25.37
2022-12-18T19:02:24.761Z,27.90
2022-12-18T19:04:52.774Z,26.73
2022-12-18T19:07:30.624Z,28.33
2022-12-18T19:10:04.189Z,27.10
2022-12-18T19:12:50.382Z,28.07
2022-12-18T19:15:19.812Z,31.90
2022-12-18T19:17:47.979Z,29.40
2022-12-18T19:20:16.686Z,29.77
2022-12-18T19:22:55.126Z,28.90
2022-12-18T19:25:28.356Z,30.40
2022-12-18T19:28:02.561Z,27.47
2022-12-18T19:30:34.085Z,28.30
2022-12-18T19:33:09.717Z,28.57
2022-12-18T19:35:50.260Z,28.77
2022-12-18T19:38:18.293Z,28.63
2022-12-18T19:40:47.057Z,26.63
2022-12-18T19:43:15.282Z,29.37
2022-12-18T19:45:45.553Z,30.57
2022-12-18T19:48:13.510Z,29.20
2022-12-18T19:50:43.030Z,27.63
2022-12-18T19:53:11.118Z,30.23
2022-12-18T19:55:43.304Z,29.37
2022-12-18T19:58:12.965Z,30.43
2022-12-18T20:00:40.887Z,31.50
2022-12-18T20:03:19.877Z,30.57
2022-12-18T20:05:51.329Z,31.10
2022-12-18T20:08:19.270Z,26.33
2022-12-18T20:10:48.849Z,31.40
2022-12-18T20:13:17.835Z,28.30
2022-12-18T20:15:45.815Z,27.53
2022-12-18T20:18:15.105Z,28.63
2022-12-18T20:20:45.665Z,31.30
2022-12-18T20:23:15.284Z,34.20
2022-12-18T20:25:43.318Z,31.40
2022-12-18T20:28:11.357Z,32.20
2022-12-18T20:30:39.305Z,29.03
2022-12-18T20:33:07.279Z,27.80
2022-12-18T20:35:36.573Z,31.60
2022-12-18T20:38:04.937Z,32.90
2022-12-18T20:40:34.055Z,29.93
2022-12-18T20:43:02.294Z,32.37
2022-12-18T20:45:30.333Z,30.13
2022-12-18T20:47:59.439Z,32.80
2022-12-18T20:50:27.461Z,31.47
2022-12-18T20:52:56.700Z,32.20
2022-12-18T20:55:24.627Z,31.60
2022-12-18T20:57:52.737Z,30.23
2022-12-18T21:00:21.227Z,33.97
2022-12-18T21:02:49.469Z,29.87
2022-12-18T21:05:17.655Z,30.00
2022-12-18T21:07:45.542Z,31.60
2022-12-18T21:10:14.825Z,30.70
2022-12-18T21:12:50.277Z,31.07
2022-12-18T21:15:28.720Z,44.50
2022-12-18T21:17:56.996Z,33.80
2022-12-18T21:20:25.044Z,40.63
2022-12-18T21:22:54.054Z,35.73
2022-12-18T21:25:27.387Z,32.33
2022-12-18T21:27:55.847Z,31.50
2022-12-18T21:30:24.014Z,35.30
2022-12-18T21:32:51.914Z,33.13
2022-12-18T21:35:20.548Z,34.43
2022-12-18T21:37:50.066Z,32.03
2022-12-18T21:40:18.260Z,31.30
2022-12-18T21:43:05.174Z,34.27
2022-12-18T21:45:33.160Z,33.03
2022-12-18T21:48:01.192Z,37.50
2022-12-18T21:50:29.445Z,34.90
2022-12-18T21:52:57.318Z,35.87
2022-12-18T21:55:25.239Z,33.47
2022-12-18T21:57:54.926Z,35.80
2022-12-18T22:00:22.991Z,33.87
2022-12-18T22:03:13.401Z,37.97
2022-12-18T22:05:39.007Z,34.07
2022-12-18T22:08:07.537Z,38.57
2022-12-18T22:10:36.143Z,38.30
2022-12-18T22:13:05.690Z,38.20
2022-12-18T22:15:34.106Z,35.30
2022-12-18T22:18:02.140Z,44.13
2022-12-18T22:20:30.328Z,36.20
2022-12-18T22:22:58.603Z,36.40
2022-12-18T22:25:27.506Z,35.83
2022-12-18T22:28:13.201Z,36.27
2022-12-18T22:30:42.528Z,34.47
2022-12-18T22:33:10.499Z,33.33
2022-12-18T22:35:38.489Z,34.53
2022-12-18T22:38:06.377Z,37.73
2022-12-18T22:40:34.481Z,36.57
2022-12-18T22:43:02.614Z,37.10
2022-12-18T22:45:30.510Z,33.60
2022-12-18T22:48:00.962Z,35.23
2022-12-18T22:50:28.987Z,36.53
2022-12-18T22:52:56.922Z,40.00
2022-12-18T22:55:24.903Z,37.77
2022-12-18T22:57:52.788Z,37.30
2022-12-18T23:00:23.864Z,42.07
2022-12-18T23:02:59.427Z,38.90
2022-12-18T23:05:30.838Z,34.83
2022-12-18T23:07:59.451Z,40.93
2022-12-18T23:10:27.552Z,39.60
2022-12-18T23:12:55.687Z,36.87
2022-12-18T23:15:27.795Z,36.50
2022-12-18T23:17:57.281Z,36.63
2022-12-18T23:20:25.853Z,38.23
2022-12-18T23:22:55.159Z,36.70
2022-12-18T23:25:23.114Z,39.57
2022-12-18T23:27:51.145Z,38.70
2022-12-18T23:30:19.219Z,35.10
2022-12-18T23:32:47.241Z,34.20
2022-12-18T23:35:15.963Z,36.57
2022-12-18T23:38:00.107Z,38.10
2022-12-18T23:40:30.312Z,37.27
2022-12-18T23:42:59.412Z,38.10
2022-12-18T23:45:27.320Z,35.10
2022-12-18T23:47:55.246Z,38.53
2022-12-18T23:50:28.929Z,39.60
2022-12-18T23:52:59.423Z,35.17
2022-12-18T23:55:38.377Z,33.80
2022-12-18T23:58:06.310Z,36.43
